Aeroporto :
LOGIN :

Iscrizione | Disclaimer

   EN    FR    IT 

 










Sommario :    VFR   VFR Marginale   IFR   IFR Intensivo   IFR Molto Intensivo
Visibilità : 
Base nubi : 
>= 8 km
>= 3000ft
5 / 8 km
1000 / 3000 ft
1500m / 5 km
500 / 1000 ft
800 / 1500m
200 / 500 ft
< 800m
< 200 ft
Simboli :   Temporali  Nebbia  Neve Forte  Precipitazioni Forti  Vento > 20 kt
SIGMETs :   Varie  Temporali  Ghiacco  Turbolenza  Onda orograficha  Ceneri Vulcaniche







- Altitudine del aeroporto : 7 ft
- Codice IATA : POW


LJPZ - Portoroz

ULTIMO METAR :
  • 230600Z 08005KT 050V140 CAVOK 24/17 Q1019

METARs OBSOLETI :
  • 230530Z VRB03KT CAVOK 24/17 Q1019
  • 230500Z 10006KT 050V150 CAVOK 24/17 Q1019
  • 230430Z VRB03KT CAVOK 23/17 Q1019 RETS
  • 230400Z 06004KT 360V140 9999 VCTS FEW060CB BKN100 BKN150 23/17 Q1019
  • 230330Z AUTO VRB01KT 9999 NSC 22/17 Q1020

TAF TAF LJPZ
Valido dal 23 a 06 ore il 23 a 15 ore UTC


230500Z 2306/2315 09005KT CAVOK
TEMPO 2306/2315 07010KT SHRA BKN050TCU
PROB30
TEMPO 2306/2315 VRB10KT 7000 TSRA BKN045CB
Nessun NOTAM noto per questo aeroporto.



MetMap, La meteo Aeronautica in un colpo d'occhio ! - Copyright ORBIFLY Dicembre 2007 - Disclaimer

ORBIFLY MET'MAP TEAM :

Programmazione e sviluppo : Alexandra Zaïnal
Concezione e sviluppo : Baudouin d'Aumeries
Co-Programmazione e sviluppo : Marc-Olivier Méhu
Supporto tecnico e logistico : Manuel Goepfert
Aiuto per la traduzione : Arnaldo La Scala

Contatto : metmap@orbifly.com




FONTI E CREDITI :

   NOAA